createdAt,value
2022-08-26T00:01:54.167Z,1.13
2022-08-26T00:04:23.766Z,1.17
2022-08-26T00:06:51.657Z,1.10
2022-08-26T00:09:18.585Z,1.23
2022-08-26T00:11:47.187Z,1.30
2022-08-26T00:14:15.823Z,1.27
2022-08-26T00:19:18.552Z,1.20
2022-08-26T00:21:48.534Z,1.33
2022-08-26T00:24:16.945Z,1.20
2022-08-26T00:26:44.652Z,1.20
2022-08-26T00:29:12.292Z,1.00
2022-08-26T00:31:39.884Z,1.20
2022-08-26T00:34:09.358Z,1.10
2022-08-26T00:36:37.642Z,0.90
2022-08-26T00:39:07.606Z,1.20
2022-08-26T00:41:37.447Z,1.30
2022-08-26T00:44:05.193Z,1.23
2022-08-26T00:46:38.314Z,1.40
2022-08-26T00:49:11.814Z,1.20
2022-08-26T00:51:53.220Z,1.15
2022-08-26T00:54:23.968Z,1.42
2022-08-26T00:56:56.715Z,1.10
2022-08-26T00:59:25.024Z,1.10
2022-08-26T01:01:53.144Z,1.10
2022-08-26T01:04:23.625Z,1.10
2022-08-26T01:06:54.024Z,1.10
2022-08-26T01:09:23.186Z,1.10
2022-08-26T01:11:53.381Z,1.20
2022-08-26T01:14:22.274Z,0.95
2022-08-26T01:16:50.129Z,0.80
2022-08-26T01:19:30.539Z,0.90
2022-08-26T01:22:14.626Z,0.80
2022-08-26T01:24:43.152Z,0.90
2022-08-26T01:27:12.489Z,0.90
2022-08-26T01:29:42.968Z,0.88
2022-08-26T01:32:14.589Z,0.80
2022-08-26T01:34:42.074Z,1.10
2022-08-26T01:37:16.225Z,0.80
2022-08-26T01:39:46.888Z,0.95
2022-08-26T01:42:15.773Z,0.80
2022-08-26T01:44:47.378Z,0.60
2022-08-26T01:47:17.461Z,0.60
2022-08-26T01:49:48.045Z,0.70
2022-08-26T01:52:27.599Z,0.70
2022-08-26T01:54:57.433Z,0.52
2022-08-26T01:57:25.967Z,1.13
2022-08-26T01:59:57.614Z,0.80
2022-08-26T02:02:24.815Z,0.68
2022-08-26T02:05:02.277Z,0.60
2022-08-26T02:07:30.324Z,0.50
2022-08-26T02:10:01.074Z,0.50
2022-08-26T02:12:28.410Z,0.57
2022-08-26T02:14:58.083Z,0.60
2022-08-26T02:17:37.591Z,0.90
2022-08-26T02:20:07.156Z,0.75
2022-08-26T02:22:41.633Z,0.60
2022-08-26T02:25:21.549Z,0.52
2022-08-26T02:27:50.129Z,0.40
2022-08-26T02:30:23.245Z,0.50
2022-08-26T02:32:51.865Z,0.60
2022-08-26T02:35:22.007Z,0.60
2022-08-26T02:37:50.287Z,0.47
2022-08-26T02:42:49.309Z,0.80
2022-08-26T02:45:23.364Z,0.45
2022-08-26T02:47:52.214Z,0.60
2022-08-26T02:52:48.427Z,0.65
2022-08-26T02:55:15.873Z,0.60
2022-08-26T02:57:43.455Z,0.70
2022-08-26T03:00:14.559Z,0.75
2022-08-26T03:02:42.113Z,0.43
2022-08-26T03:05:09.722Z,0.50
2022-08-26T03:07:36.915Z,0.60
2022-08-26T03:10:08.119Z,0.95
2022-08-26T03:12:37.104Z,0.57
2022-08-26T03:15:16.572Z,0.73
2022-08-26T03:17:47.321Z,0.50
2022-08-26T03:20:15.474Z,0.50
2022-08-26T03:22:42.656Z,0.40
2022-08-26T03:25:13.028Z,0.50
2022-08-26T03:27:41.908Z,0.50
2022-08-26T03:30:29.653Z,0.50
2022-08-26T03:32:57.162Z,0.52
2022-08-26T03:35:25.779Z,0.60
2022-08-26T03:37:53.752Z,0.65
2022-08-26T03:40:21.731Z,0.73
2022-08-26T03:42:50.004Z,0.68
2022-08-26T03:45:18.131Z,0.70
2022-08-26T03:47:45.520Z,0.75
2022-08-26T03:50:16.029Z,0.60
2022-08-26T03:52:44.255Z,0.40
2022-08-26T03:55:12.505Z,0.75
2022-08-26T03:57:39.659Z,0.60
2022-08-26T04:00:09.846Z,0.63
2022-08-26T04:02:37.168Z,0.65
2022-08-26T04:05:04.631Z,0.57
2022-08-26T04:07:32.035Z,0.68
2022-08-26T04:12:27.254Z,0.45
2022-08-26T04:14:54.294Z,0.50
2022-08-26T04:17:25.847Z,0.50
2022-08-26T04:19:54.074Z,0.60
2022-08-26T04:22:24.161Z,0.60
2022-08-26T04:24:52.645Z,0.50
2022-08-26T04:27:19.865Z,0.35
2022-08-26T04:29:47.959Z,0.60
2022-08-26T04:32:16.482Z,0.40
2022-08-26T04:34:44.024Z,0.50
2022-08-26T04:37:12.093Z,0.50
2022-08-26T04:39:39.176Z,0.40
2022-08-26T04:42:06.553Z,0.30
2022-08-26T04:44:36.519Z,0.40
2022-08-26T04:47:04.773Z,0.38
2022-08-26T04:49:35.135Z,0.50
2022-08-26T04:52:02.934Z,0.40
2022-08-26T04:54:30.104Z,0.43
2022-08-26T04:56:57.362Z,0.47
2022-08-26T04:59:25.162Z,0.50
2022-08-26T05:01:57.288Z,0.63
2022-08-26T05:04:24.487Z,0.50
2022-08-26T05:06:55.674Z,0.60
2022-08-26T05:09:25.613Z,0.70
2022-08-26T05:11:52.565Z,0.60
2022-08-26T05:14:23.264Z,0.45
2022-08-26T05:16:51.206Z,0.50
2022-08-26T05:19:19.283Z,0.80
2022-08-26T05:21:47.761Z,0.50
2022-08-26T05:24:16.064Z,0.40
2022-08-26T05:26:44.990Z,0.50
2022-08-26T05:31:39.248Z,0.50
2022-08-26T05:34:07.014Z,0.60
2022-08-26T05:36:36.943Z,0.63
2022-08-26T05:39:10.535Z,0.50
2022-08-26T05:41:41.061Z,0.40
2022-08-26T05:44:11.351Z,0.40
2022-08-26T05:46:40.144Z,0.60
2022-08-26T05:49:12.577Z,0.60
2022-08-26T05:51:42.028Z,0.60
2022-08-26T05:54:10.492Z,0.40
2022-08-26T05:56:39.143Z,0.47
2022-08-26T05:59:14.097Z,0.60
2022-08-26T06:01:43.571Z,0.47
2022-08-26T06:04:14.651Z,0.50
2022-08-26T06:06:43.131Z,0.68
2022-08-26T06:09:11.456Z,0.43
2022-08-26T06:11:39.296Z,0.50
2022-08-26T06:14:08.251Z,0.50
2022-08-26T06:16:41.005Z,0.70
2022-08-26T06:19:11.136Z,0.50
2022-08-26T06:21:41.600Z,0.50
2022-08-26T06:24:32.550Z,0.43
2022-08-26T06:27:08.281Z,0.50
2022-08-26T06:29:38.401Z,0.50
2022-08-26T06:32:06.968Z,0.30
2022-08-26T06:34:35.949Z,0.60
2022-08-26T06:37:03.860Z,0.77
2022-08-26T06:39:33.838Z,0.60
2022-08-26T06:42:02.727Z,0.60
2022-08-26T06:44:34.112Z,0.52
2022-08-26T06:47:01.145Z,0.85
2022-08-26T06:49:28.164Z,0.75
2022-08-26T06:51:58.567Z,0.82
2022-08-26T06:54:27.514Z,0.60
2022-08-26T06:56:56.984Z,0.70
2022-08-26T06:59:24.740Z,0.65
2022-08-26T07:01:52.350Z,0.60
2022-08-26T07:04:22.403Z,0.90
2022-08-26T07:06:52.714Z,0.90
2022-08-26T07:09:22.223Z,0.75
2022-08-26T07:11:51.341Z,0.80
2022-08-26T07:14:19.407Z,0.75
2022-08-26T07:16:48.853Z,0.70
2022-08-26T07:19:17.457Z,0.70
2022-08-26T07:21:55.671Z,0.63
2022-08-26T07:24:22.920Z,0.60
2022-08-26T07:26:50.355Z,0.50
2022-08-26T07:29:18.428Z,0.70
2022-08-26T07:31:45.639Z,0.98
2022-08-26T07:34:13.963Z,0.68
2022-08-26T07:36:41.410Z,0.70
2022-08-26T07:39:09.161Z,0.90
2022-08-26T07:41:36.628Z,0.68
2022-08-26T07:44:04.313Z,0.88
2022-08-26T07:46:31.670Z,0.90
2022-08-26T07:48:59.337Z,0.70
2022-08-26T07:51:27.244Z,0.73
2022-08-26T07:56:23.278Z,0.90
2022-08-26T07:58:53.887Z,0.65
2022-08-26T08:01:23.808Z,0.73
2022-08-26T08:03:52.178Z,0.57
2022-08-26T08:06:21.401Z,0.63
2022-08-26T08:08:50.711Z,0.55
2022-08-26T08:11:22.132Z,0.45
2022-08-26T08:13:56.086Z,0.65
2022-08-26T08:16:26.298Z,0.60
2022-08-26T08:18:54.028Z,0.60
2022-08-26T08:21:23.865Z,0.60
2022-08-26T08:23:52.713Z,0.70
2022-08-26T08:26:20.406Z,0.85
2022-08-26T08:28:48.102Z,0.70
2022-08-26T08:34:15.045Z,0.75
2022-08-26T08:36:42.237Z,0.60
2022-08-26T08:39:09.912Z,0.57
2022-08-26T08:42:05.943Z,0.70
2022-08-26T08:44:37.116Z,0.90
2022-08-26T08:47:13.205Z,0.68
2022-08-26T08:49:40.282Z,0.93
2022-08-26T08:52:30.741Z,0.73
2022-08-26T08:54:58.216Z,0.90
2022-08-26T08:57:37.592Z,0.73
2022-08-26T09:00:17.941Z,0.50
2022-08-26T09:03:01.754Z,0.50
2022-08-26T09:05:40.224Z,0.70
2022-08-26T09:08:21.549Z,0.98
2022-08-26T09:10:56.054Z,0.70
2022-08-26T09:13:26.383Z,0.40
2022-08-26T09:16:05.046Z,0.60
2022-08-26T09:18:41.805Z,0.65
2022-08-26T09:21:15.293Z,0.70
2022-08-26T09:23:49.363Z,0.52
2022-08-26T09:26:23.546Z,0.68
2022-08-26T09:29:01.941Z,0.60
2022-08-26T09:31:37.813Z,0.63
2022-08-26T09:34:13.190Z,0.80
2022-08-26T09:36:48.538Z,1.00
2022-08-26T09:39:27.663Z,1.00
2022-08-26T09:42:08.674Z,1.08
2022-08-26T09:44:58.332Z,0.88
2022-08-26T09:47:30.311Z,0.93
2022-08-26T09:50:23.569Z,1.10
2022-08-26T09:53:05.288Z,0.95
2022-08-26T09:55:38.087Z,0.80
2022-08-26T09:58:08.925Z,0.90
2022-08-26T10:00:39.642Z,1.00
2022-08-26T10:03:31.594Z,0.90
2022-08-26T10:06:00.197Z,0.80
2022-08-26T10:08:37.671Z,1.00
2022-08-26T10:11:19.450Z,0.90
2022-08-26T10:13:56.277Z,0.93
2022-08-26T10:16:46.360Z,1.20
2022-08-26T10:19:20.024Z,0.73
2022-08-26T10:21:58.048Z,0.80
2022-08-26T10:24:38.142Z,0.90
2022-08-26T10:27:27.418Z,1.20
2022-08-26T10:30:04.053Z,0.80
2022-08-26T10:32:54.879Z,0.95
2022-08-26T10:35:22.229Z,0.95
2022-08-26T10:37:54.223Z,1.20
2022-08-26T10:40:29.541Z,1.08
2022-08-26T10:43:11.038Z,0.90
2022-08-26T10:45:51.175Z,0.75
2022-08-26T10:48:44.991Z,1.02
2022-08-26T10:51:13.674Z,1.25
2022-08-26T10:54:10.901Z,0.80
2022-08-26T10:56:44.965Z,0.90
2022-08-26T10:59:13.482Z,0.90
2022-08-26T11:01:52.474Z,0.90
2022-08-26T11:04:26.125Z,0.80
2022-08-26T11:07:32.101Z,0.90
2022-08-26T11:10:01.465Z,0.90
2022-08-26T11:12:37.366Z,1.00
2022-08-26T11:15:13.603Z,0.90
2022-08-26T11:17:46.988Z,1.15
2022-08-26T11:20:23.699Z,0.82
2022-08-26T11:22:52.866Z,1.00
2022-08-26T11:25:24.441Z,1.27
2022-08-26T11:27:59.661Z,1.65
2022-08-26T11:30:45.166Z,1.20
2022-08-26T11:33:52.357Z,0.98
2022-08-26T11:36:36.150Z,1.23
2022-08-26T11:39:31.796Z,0.95
2022-08-26T11:42:28.419Z,0.95
2022-08-26T11:44:58.204Z,0.80
2022-08-26T11:47:28.810Z,0.70
2022-08-26T11:50:23.308Z,0.88
2022-08-26T11:53:01.912Z,0.75
2022-08-26T11:55:32.171Z,1.00
2022-08-26T11:58:01.916Z,0.90
2022-08-26T12:00:46.562Z,0.93
2022-08-26T12:03:23.031Z,1.00
2022-08-26T12:05:53.541Z,0.88
2022-08-26T12:08:24.889Z,0.80
2022-08-26T12:11:11.012Z,1.10
2022-08-26T12:13:39.229Z,0.98
2022-08-26T12:16:09.244Z,1.15
2022-08-26T12:18:39.677Z,1.25
2022-08-26T12:21:22.116Z,1.20
2022-08-26T12:23:54.750Z,0.90
2022-08-26T12:26:34.709Z,0.80
2022-08-26T12:29:09.988Z,1.17
2022-08-26T12:31:47.842Z,1.23
2022-08-26T12:34:18.210Z,0.80
2022-08-26T12:36:56.384Z,0.80
2022-08-26T12:39:35.425Z,0.75
2022-08-26T12:42:04.332Z,0.82
2022-08-26T12:45:03.245Z,0.90
2022-08-26T12:47:43.377Z,0.60
2022-08-26T12:50:10.940Z,0.90
2022-08-26T12:53:01.712Z,0.70
2022-08-26T12:55:42.611Z,0.93
2022-08-26T12:58:23.362Z,0.82
2022-08-26T13:00:56.219Z,0.93
2022-08-26T13:03:37.669Z,0.80
2022-08-26T13:06:22.774Z,1.00
2022-08-26T13:08:58.660Z,0.80
2022-08-26T13:11:30.474Z,1.05
2022-08-26T13:14:18.461Z,0.65
2022-08-26T13:16:51.314Z,0.80
2022-08-26T13:19:26.059Z,0.60
2022-08-26T13:21:58.051Z,0.77
2022-08-26T13:24:57.690Z,0.82
2022-08-26T13:27:26.367Z,0.90
2022-08-26T13:29:54.381Z,0.82
2022-08-26T13:32:26.867Z,0.70
2022-08-26T13:34:56.445Z,0.80
2022-08-26T13:37:24.300Z,0.70
2022-08-26T13:40:02.797Z,0.77
2022-08-26T13:44:58.226Z,0.75
2022-08-26T13:47:26.251Z,0.60
2022-08-26T13:49:56.259Z,0.60
2022-08-26T13:52:30.383Z,0.70
2022-08-26T13:55:00.438Z,0.60
2022-08-26T13:57:28.614Z,0.60
2022-08-26T13:59:57.155Z,0.73
2022-08-26T14:02:24.662Z,0.60
2022-08-26T14:04:53.682Z,0.90
2022-08-26T14:07:20.757Z,0.75
2022-08-26T14:09:47.865Z,0.88
2022-08-26T14:12:14.943Z,0.80
2022-08-26T14:14:42.222Z,0.70
2022-08-26T14:17:09.820Z,0.60
2022-08-26T14:19:37.405Z,0.75
2022-08-26T14:22:04.684Z,0.65
2022-08-26T14:24:31.691Z,0.70
2022-08-26T14:26:58.748Z,0.70
2022-08-26T14:29:26.368Z,0.70
2022-08-26T14:31:54.624Z,0.90
2022-08-26T14:36:48.516Z,0.50
2022-08-26T14:39:15.480Z,0.60
2022-08-26T14:41:54.399Z,0.63
2022-08-26T14:44:27.661Z,0.55
2022-08-26T14:46:55.377Z,0.50
2022-08-26T14:49:23.931Z,0.50
2022-08-26T14:51:51.068Z,0.50
2022-08-26T14:54:19.086Z,0.47
2022-08-26T14:56:49.001Z,0.57
2022-08-26T14:59:20.740Z,0.60
2022-08-26T15:01:48.127Z,0.60
2022-08-26T15:04:15.600Z,0.60
2022-08-26T15:06:42.865Z,0.40
2022-08-26T15:09:09.986Z,0.50
2022-08-26T15:11:37.179Z,0.50
2022-08-26T15:14:04.786Z,0.40
2022-08-26T15:16:32.500Z,0.63
2022-08-26T15:19:00.577Z,0.30
2022-08-26T15:21:28.541Z,0.43
2022-08-26T15:23:55.519Z,0.75
2022-08-26T15:26:23.581Z,0.50
2022-08-26T15:28:51.642Z,0.60
2022-08-26T15:31:18.901Z,0.70
2022-08-26T15:33:45.966Z,0.40
2022-08-26T15:36:13.067Z,0.60
2022-08-26T15:38:42.663Z,0.50
2022-08-26T15:41:10.386Z,0.50
2022-08-26T15:43:38.123Z,0.70
2022-08-26T15:46:10.399Z,0.50
2022-08-26T15:48:38.449Z,0.40
2022-08-26T15:51:06.395Z,0.70
2022-08-26T15:53:34.706Z,0.50
2022-08-26T15:58:29.734Z,0.60
2022-08-26T16:03:24.950Z,0.65
2022-08-26T16:05:52.049Z,0.60
2022-08-26T16:08:19.694Z,0.60
2022-08-26T16:10:50.549Z,0.40
2022-08-26T16:13:20.143Z,0.68
2022-08-26T16:15:50.288Z,0.80
2022-08-26T16:18:17.364Z,0.60
2022-08-26T16:21:12.320Z,0.82
2022-08-26T16:23:40.112Z,0.40
2022-08-26T16:26:17.653Z,0.50
2022-08-26T16:28:44.993Z,0.50
2022-08-26T16:31:12.807Z,0.50
2022-08-26T16:33:40.661Z,0.43
2022-08-26T16:36:08.511Z,0.60
2022-08-26T16:38:37.676Z,0.70
2022-08-26T16:41:05.236Z,0.60
2022-08-26T16:43:32.680Z,0.50
2022-08-26T16:46:00.978Z,0.50
2022-08-26T16:48:28.136Z,0.63
2022-08-26T16:50:55.626Z,0.50
2022-08-26T16:53:23.251Z,0.60
2022-08-26T16:55:51.010Z,0.57
2022-08-26T16:58:21.960Z,0.60
2022-08-26T17:00:49.404Z,0.50
2022-08-26T17:03:16.950Z,0.50
2022-08-26T17:05:44.493Z,0.60
2022-08-26T17:08:14.517Z,0.47
2022-08-26T17:10:48.957Z,0.50
2022-08-26T17:13:34.500Z,0.50
2022-08-26T17:16:05.159Z,0.60
2022-08-26T17:18:33.413Z,0.60
2022-08-26T17:21:03.436Z,0.60
2022-08-26T17:23:30.780Z,0.60
2022-08-26T17:25:57.825Z,0.63
2022-08-26T17:28:24.918Z,0.50
2022-08-26T17:30:51.948Z,0.50
2022-08-26T17:33:24.513Z,0.60
2022-08-26T17:35:53.064Z,0.68
2022-08-26T17:38:21.480Z,0.60
2022-08-26T17:43:15.920Z,0.50
2022-08-26T17:45:43.383Z,0.65
2022-08-26T17:48:11.229Z,0.60
2022-08-26T17:50:43.216Z,0.60
2022-08-26T17:53:18.572Z,0.70
2022-08-26T17:55:46.906Z,0.50
2022-08-26T17:58:14.939Z,0.80
2022-08-26T18:00:50.642Z,0.50
2022-08-26T18:03:19.092Z,0.43
2022-08-26T18:05:51.189Z,0.73
2022-08-26T18:08:18.806Z,0.50
2022-08-26T18:10:48.206Z,0.63
2022-08-26T18:13:15.663Z,0.47
2022-08-26T18:15:44.159Z,0.80
2022-08-26T18:18:12.629Z,0.88
2022-08-26T18:20:41.462Z,0.93
2022-08-26T18:23:08.788Z,0.60
2022-08-26T18:25:42.851Z,0.60
2022-08-26T18:28:10.192Z,0.70
2022-08-26T18:30:37.215Z,0.55
2022-08-26T18:33:04.461Z,0.70
2022-08-26T18:35:31.477Z,0.93
2022-08-26T18:38:01.409Z,0.80
2022-08-26T18:40:40.492Z,0.75
2022-08-26T18:43:07.729Z,1.02
2022-08-26T18:45:34.899Z,0.70
2022-08-26T18:48:03.450Z,0.98
2022-08-26T18:50:30.547Z,1.02
2022-08-26T18:52:57.698Z,1.17
2022-08-26T18:55:25.390Z,1.20
2022-08-26T18:57:52.454Z,1.10
2022-08-26T19:00:19.936Z,1.50
2022-08-26T19:02:51.844Z,1.70
2022-08-26T19:05:19.775Z,1.85
2022-08-26T19:07:47.913Z,2.55
2022-08-26T19:10:15.084Z,2.15
2022-08-26T19:12:42.501Z,2.38
2022-08-26T19:15:11.406Z,2.53
2022-08-26T19:17:38.642Z,2.42
2022-08-26T19:20:06.475Z,1.75
2022-08-26T19:22:33.534Z,2.47
2022-08-26T19:25:01.377Z,2.60
2022-08-26T19:27:28.360Z,2.67
2022-08-26T19:29:56.597Z,2.42
2022-08-26T19:32:24.351Z,2.20
2022-08-26T19:34:52.717Z,3.30
2022-08-26T19:37:20.692Z,3.63
2022-08-26T19:39:47.933Z,3.75
2022-08-26T19:42:16.675Z,4.47
2022-08-26T19:45:02.434Z,4.20
2022-08-26T19:47:29.535Z,3.92
2022-08-26T19:49:56.900Z,3.42
2022-08-26T19:52:29.771Z,3.63
2022-08-26T19:54:58.245Z,3.08
2022-08-26T19:57:25.383Z,2.45
2022-08-26T19:59:52.439Z,2.30
2022-08-26T20:02:19.773Z,2.17
2022-08-26T20:04:46.832Z,2.30
2022-08-26T20:07:18.506Z,2.50
2022-08-26T20:09:47.396Z,2.55
2022-08-26T20:14:42.902Z,3.17
2022-08-26T20:17:10.043Z,2.95
2022-08-26T20:19:55.552Z,2.50
2022-08-26T20:22:23.572Z,2.20
2022-08-26T20:24:51.772Z,1.60
2022-08-26T20:27:19.017Z,1.60
2022-08-26T20:29:46.117Z,1.77
2022-08-26T20:32:13.345Z,2.20
2022-08-26T20:34:40.547Z,1.88
2022-08-26T20:37:08.505Z,1.90
2022-08-26T20:39:35.822Z,2.05
2022-08-26T20:42:03.586Z,1.58
2022-08-26T20:44:30.920Z,1.85
2022-08-26T20:46:59.241Z,1.30
2022-08-26T20:49:27.922Z,1.17
2022-08-26T20:51:55.370Z,1.20
2022-08-26T20:54:28.245Z,1.10
2022-08-26T20:56:57.801Z,1.15
2022-08-26T20:59:25.969Z,1.50
2022-08-26T21:01:53.176Z,1.30
2022-08-26T21:04:23.433Z,1.20
2022-08-26T21:06:52.656Z,1.77
2022-08-26T21:09:21.685Z,1.83
2022-08-26T21:11:48.930Z,1.40
2022-08-26T21:14:17.300Z,1.55
2022-08-26T21:16:46.535Z,1.23
2022-08-26T21:19:16.010Z,1.30
2022-08-26T21:21:44.476Z,1.20
2022-08-26T21:26:38.901Z,1.15
2022-08-26T21:29:09.679Z,1.23
2022-08-26T21:31:41.018Z,1.25
2022-08-26T21:34:12.375Z,1.20
2022-08-26T21:36:39.437Z,1.10
2022-08-26T21:39:10.853Z,1.17
2022-08-26T21:41:38.905Z,1.20
2022-08-26T21:44:05.885Z,1.10
2022-08-26T21:46:34.473Z,1.10
2022-08-26T21:49:03.496Z,1.10
2022-08-26T21:51:38.617Z,1.10
2022-08-26T21:54:10.771Z,1.25
2022-08-26T21:56:42.289Z,0.82
2022-08-26T21:59:09.781Z,1.05
2022-08-26T22:01:37.729Z,1.00
2022-08-26T22:04:07.554Z,0.80
2022-08-26T22:06:41.828Z,1.00
2022-08-26T22:09:09.459Z,1.40
2022-08-26T22:11:37.138Z,1.70
2022-08-26T22:14:04.209Z,2.10
2022-08-26T22:16:31.295Z,2.33
2022-08-26T22:18:58.305Z,1.98
2022-08-26T22:21:29.542Z,2.28
2022-08-26T22:23:58.781Z,1.80
2022-08-26T22:26:29.053Z,1.42
2022-08-26T22:28:58.619Z,1.40
2022-08-26T22:31:38.411Z,1.48
2022-08-26T22:34:08.609Z,1.52
2022-08-26T22:36:43.067Z,1.17
2022-08-26T22:39:13.793Z,1.38
2022-08-26T22:41:43.021Z,1.20
2022-08-26T22:44:11.845Z,1.17
2022-08-26T22:46:40.147Z,1.90
2022-08-26T22:49:09.603Z,1.60
2022-08-26T22:51:36.722Z,1.60
2022-08-26T22:54:03.988Z,1.85
2022-08-26T22:56:30.976Z,1.88
2022-08-26T22:58:58.282Z,1.58
2022-08-26T23:01:25.437Z,1.30
2022-08-26T23:03:52.500Z,1.60
2022-08-26T23:06:19.497Z,1.60
2022-08-26T23:08:47.409Z,1.70
2022-08-26T23:11:15.007Z,1.50
2022-08-26T23:13:42.589Z,1.83
2022-08-26T23:16:11.963Z,1.40
2022-08-26T23:18:40.936Z,1.05
2022-08-26T23:21:08.508Z,1.30
2022-08-26T23:23:38.344Z,1.40
2022-08-26T23:26:07.046Z,1.20
2022-08-26T23:28:37.702Z,1.38
2022-08-26T23:31:06.225Z,1.48
2022-08-26T23:36:22.796Z,1.23
2022-08-26T23:38:52.889Z,1.40
2022-08-26T23:41:22.839Z,1.33
2022-08-26T23:43:50.880Z,1.60
2022-08-26T23:46:19.166Z,1.20
2022-08-26T23:48:47.172Z,1.13
2022-08-26T23:51:33.461Z,1.38
2022-08-26T23:54:00.849Z,1.10
2022-08-26T23:56:28.693Z,1.13
2022-08-26T23:58:56.078Z,1.52
